Time;durP1;ratioP1;P1;durP2;ratioP2;P2;SDS_P1;SDS_P2;PMS_P1;PMS_P2;Temp;Humidity;BMP_temperature;BMP_pressure;BME280_temperature;BME280_humidity;BME280_pressure;Samples;Min_cycle;Max_cycle;Signal;HPM_P1;HPM_P2
2022/03/22 00:00:22;;;;;;;13.30;8.55;;;6.30;49.00;;;;;;5040974;28;20102;-82
2022/03/22 00:02:48;;;;;;;13.57;7.47;;;6.30;48.70;;;;;;5069680;28;20024;-82
2022/03/22 00:05:15;;;;;;;12.15;8.20;;;6.30;48.90;;;;;;5049859;28;20535;-82
2022/03/22 00:07:42;;;;;;;13.48;8.48;;;6.30;48.80;;;;;;5057151;28;20060;-81
2022/03/22 00:10:08;;;;;;;13.63;8.82;;;6.20;49.50;;;;;;5065893;28;20119;-82
2022/03/22 00:12:35;;;;;;;16.00;8.43;;;6.20;49.20;;;;;;5048545;28;20039;-81
2022/03/22 00:15:02;;;;;;;15.55;8.60;;;6.10;49.10;;;;;;5052307;28;20028;-82
2022/03/22 00:17:28;;;;;;;14.65;8.90;;;6.10;49.40;;;;;;5050897;28;20032;-81
2022/03/22 00:19:54;;;;;;;13.32;7.90;;;6.20;48.90;;;;;;5068981;28;20025;-82
2022/03/22 00:22:20;;;;;;;13.90;8.52;;;6.20;48.80;;;;;;5050293;28;20039;-82
2022/03/22 00:24:45;;;;;;;14.07;8.27;;;6.10;49.60;;;;;;5047143;28;20024;-82
2022/03/22 00:27:11;;;;;;;14.63;8.38;;;6.10;49.30;;;;;;5072497;28;20029;-82
2022/03/22 00:29:36;;;;;;;15.55;8.52;;;6.10;49.80;;;;;;5052060;28;20123;-82
2022/03/22 00:32:03;;;;;;;14.93;8.85;;;6.10;50.60;;;;;;5051519;28;20015;-82
2022/03/22 00:34:28;;;;;;;13.45;8.30;;;5.90;50.10;;;;;;5048118;28;20021;-81
2022/03/22 00:36:58;;;;;;;14.30;8.60;;;5.80;50.60;;;;;;5046695;28;20571;-82
2022/03/22 00:39:25;;;;;;;14.07;7.95;;;5.80;51.00;;;;;;5066525;28;20143;-81
2022/03/22 00:41:52;;;;;;;16.77;9.02;;;5.80;50.90;;;;;;5054925;28;20032;-81
2022/03/22 00:44:17;;;;;;;12.93;8.52;;;5.70;50.90;;;;;;5062764;28;20017;-81
2022/03/22 00:46:43;;;;;;;12.70;8.38;;;5.60;51.80;;;;;;5067926;28;20052;-81
2022/03/22 00:49:08;;;;;;;13.25;8.40;;;5.50;52.20;;;;;;5064224;28;20068;-81
2022/03/22 00:51:35;;;;;;;14.18;8.35;;;5.40;52.20;;;;;;5045095;28;20017;-82
2022/03/22 00:54:02;;;;;;;14.10;8.43;;;5.40;52.20;;;;;;5066271;28;20030;-81
2022/03/22 00:56:28;;;;;;;13.55;8.38;;;5.30;53.30;;;;;;5048895;28;20016;-81
2022/03/22 01:00:01;;;;;;;16.23;8.75;;;5.30;52.90;;;;;;5054222;28;20132;-81
2022/03/22 01:01:40;;;;;;;13.38;8.50;;;5.30;53.30;;;;;;5072855;28;20028;-81
2022/03/22 01:04:06;;;;;;;13.98;8.73;;;5.10;53.80;;;;;;5061871;28;20040;-82
2022/03/22 01:06:32;;;;;;;15.38;8.07;;;5.20;53.10;;;;;;5062261;28;20032;-82
2022/03/22 01:08:58;;;;;;;14.90;8.35;;;5.30;52.90;;;;;;5050092;28;20036;-81
2022/03/22 01:11:23;;;;;;;13.55;8.35;;;5.40;52.60;;;;;;5069603;28;20033;-81
2022/03/22 01:13:49;;;;;;;14.27;8.50;;;5.40;52.70;;;;;;5055479;28;20013;-81
2022/03/22 01:16:15;;;;;;;16.27;9.48;;;5.40;52.20;;;;;;5070214;28;20054;-81
2022/03/22 01:18:41;;;;;;;12.43;8.05;;;5.30;52.70;;;;;;5077347;28;20027;-81
2022/03/22 01:21:06;;;;;;;14.60;9.55;;;5.30;52.50;;;;;;5061712;28;20032;-81
2022/03/22 01:23:32;;;;;;;15.00;8.95;;;5.30;52.60;;;;;;5072112;28;20375;-81
2022/03/22 01:25:58;;;;;;;14.43;8.68;;;5.30;52.50;;;;;;5054827;28;20024;-82
2022/03/22 01:28:23;;;;;;;16.35;9.43;;;5.40;51.80;;;;;;5053061;28;20028;-81
2022/03/22 01:30:49;;;;;;;14.95;8.80;;;5.50;51.40;;;;;;5060615;28;20031;-81
2022/03/22 01:33:15;;;;;;;15.55;8.32;;;5.50;51.60;;;;;;5076745;28;20028;-81
2022/03/22 01:35:41;;;;;;;14.23;9.10;;;5.50;51.30;;;;;;5053645;28;20025;-81
2022/03/22 01:38:07;;;;;;;13.27;9.07;;;5.40;52.10;;;;;;5052256;28;20041;-81
2022/03/22 01:40:33;;;;;;;12.90;8.40;;;5.40;53.00;;;;;;5070561;28;20024;-81
2022/03/22 01:42:59;;;;;;;14.07;8.93;;;5.30;52.20;;;;;;5064091;28;20033;-81
2022/03/22 01:45:25;;;;;;;16.42;9.00;;;5.40;52.10;;;;;;5068917;28;20025;-81
2022/03/22 01:47:52;;;;;;;18.88;9.63;;;5.40;51.80;;;;;;5054825;28;20119;-81
2022/03/22 01:50:19;;;;;;;14.07;8.65;;;5.50;51.60;;;;;;5070453;28;20119;-81
2022/03/22 01:52:45;;;;;;;14.05;8.93;;;5.40;52.20;;;;;;5054044;28;20028;-82
2022/03/22 01:55:15;;;;;;;12.27;8.77;;;5.30;52.60;;;;;;5059812;28;20025;-81
2022/03/22 01:57:41;;;;;;;13.48;8.55;;;5.30;52.30;;;;;;5090557;28;20023;-81
2022/03/22 02:00:13;;;;;;;15.98;8.32;;;5.40;51.90;;;;;;5044753;28;20115;-81
2022/03/22 02:08:08;;;;;;;20.48;9.18;;;5.40;51.80;;;;;;5069324;28;20047;-82
2022/03/22 02:10:35;;;;;;;16.73;9.02;;;5.30;52.10;;;;;;5072224;28;20396;-81
2022/03/22 02:13:01;;;;;;;14.50;9.15;;;5.30;52.40;;;;;;5056018;28;20021;-81
2022/03/22 02:15:27;;;;;;;14.30;9.40;;;5.30;53.20;;;;;;5046806;28;20032;-81
2022/03/22 02:17:52;;;;;;;13.02;8.60;;;5.10;53.20;;;;;;5072430;28;20031;-82
2022/03/22 02:20:18;;;;;;;16.38;9.20;;;5.00;53.90;;;;;;5065219;28;20044;-81
2022/03/22 02:23:03;;;;;;;20.13;9.52;;;5.00;53.80;;;;;;5069435;28;20041;-81
2022/03/22 02:25:29;;;;;;;16.80;9.32;;;5.00;54.60;;;;;;5044704;28;20035;-81
2022/03/22 02:27:55;;;;;;;14.13;9.52;;;4.90;54.40;;;;;;5049805;28;20033;-81
2022/03/22 02:30:22;;;;;;;14.05;9.10;;;4.90;54.80;;;;;;5082670;28;20030;-81
2022/03/22 02:32:59;;;;;;;16.77;9.30;;;4.80;54.70;;;;;;5071564;28;20037;-81
2022/03/22 02:35:25;;;;;;;16.20;8.40;;;4.80;54.50;;;;;;5048254;28;20605;-81
2022/03/22 02:37:51;;;;;;;14.65;8.93;;;4.90;54.00;;;;;;5050815;28;20075;-81
2022/03/22 02:40:17;;;;;;;13.23;8.77;;;4.90;54.60;;;;;;5065835;28;20028;-81
2022/03/22 02:42:53;;;;;;;15.45;9.20;;;4.90;54.60;;;;;;5056391;28;20036;-82
2022/03/22 02:45:21;;;;;;;14.52;8.88;;;4.80;54.20;;;;;;5056431;28;20032;-81
2022/03/22 02:47:46;;;;;;;15.25;8.85;;;4.80;55.10;;;;;;5046117;28;20426;-81
2022/03/22 02:50:13;;;;;;;14.02;9.88;;;4.70;55.40;;;;;;5057564;28;20036;-82
2022/03/22 02:52:39;;;;;;;14.90;9.70;;;4.70;54.80;;;;;;5065492;28;20052;-81
2022/03/22 02:55:06;;;;;;;14.52;9.40;;;4.80;54.70;;;;;;5051241;28;20137;-81
2022/03/22 02:57:34;;;;;;;13.38;8.93;;;4.80;54.40;;;;;;5051844;28;20035;-82
2022/03/22 03:00:00;;;;;;;16.13;10.07;;;4.90;53.70;;;;;;5084455;28;20032;-81
2022/03/22 03:02:25;;;;;;;18.35;9.35;;;5.00;53.50;;;;;;5052640;28;20098;-81
2022/03/22 03:04:51;;;;;;;14.82;8.90;;;4.90;53.70;;;;;;5083371;28;20446;-81
2022/03/22 03:07:16;;;;;;;15.65;8.70;;;4.90;53.80;;;;;;5038295;28;20513;-81
2022/03/22 03:09:41;;;;;;;13.02;9.00;;;4.90;53.60;;;;;;5051386;28;20024;-82
2022/03/22 03:12:08;;;;;;;16.13;10.02;;;4.90;53.60;;;;;;5051912;28;20032;-82
2022/03/22 03:14:39;;;;;;;13.15;8.20;;;4.80;54.10;;;;;;5047506;28;20047;-81
2022/03/22 03:17:09;;;;;;;18.15;9.45;;;4.80;54.00;;;;;;5066899;28;20027;-81
2022/03/22 03:19:36;;;;;;;16.25;9.68;;;4.80;53.80;;;;;;5048030;28;20527;-81
2022/03/22 03:22:03;;;;;;;14.38;8.93;;;4.80;53.90;;;;;;5048184;28;20093;-81
2022/03/22 03:24:28;;;;;;;14.00;9.18;;;4.80;54.20;;;;;;5047062;28;20115;-82
2022/03/22 03:26:54;;;;;;;13.85;8.95;;;4.80;54.00;;;;;;5046823;28;20433;-81
2022/03/22 03:29:20;;;;;;;14.65;8.93;;;4.70;54.20;;;;;;5054267;28;20066;-81
2022/03/22 03:31:45;;;;;;;25.83;9.50;;;4.70;54.40;;;;;;5053955;28;20036;-81
2022/03/22 03:34:11;;;;;;;16.38;8.90;;;4.60;54.70;;;;;;5047661;28;20372;-81
2022/03/22 03:36:36;;;;;;;17.58;9.27;;;4.70;54.70;;;;;;5067684;28;20036;-82
2022/03/22 03:39:04;;;;;;;16.55;9.05;;;4.70;54.50;;;;;;5065489;28;20103;-81
2022/03/22 03:47:05;;;;;;;16.42;9.40;;;4.60;55.20;;;;;;5068979;28;20040;-81
2022/03/22 03:49:37;;;;;;;15.43;9.05;;;4.70;55.10;;;;;;5048323;28;20067;-81
2022/03/22 03:52:07;;;;;;;14.63;9.57;;;4.60;55.20;;;;;;5059809;28;20031;-81
2022/03/22 03:54:34;;;;;;;17.10;9.40;;;4.60;55.30;;;;;;5065129;28;20471;-81
2022/03/22 03:56:59;;;;;;;14.38;9.20;;;4.60;55.10;;;;;;5048741;28;20087;-82
2022/03/22 03:59:25;;;;;;;14.70;9.43;;;4.60;55.20;;;;;;5053195;28;20032;-82
2022/03/22 04:01:51;;;;;;;16.00;9.40;;;4.50;55.50;;;;;;5054294;28;20035;-81
2022/03/22 04:04:16;;;;;;;18.08;9.85;;;4.40;55.80;;;;;;5070913;28;20025;-81
2022/03/22 04:06:42;;;;;;;13.38;9.05;;;4.40;56.20;;;;;;5067929;28;20031;-81
2022/03/22 04:09:07;;;;;;;16.83;9.65;;;4.30;56.70;;;;;;5071019;28;20111;-81
2022/03/22 04:11:33;;;;;;;16.02;10.13;;;4.30;56.80;;;;;;5050060;28;20029;-81
2022/03/22 04:13:58;;;;;;;15.38;9.52;;;4.30;56.70;;;;;;5062333;28;20036;-81
2022/03/22 04:16:24;;;;;;;15.45;9.38;;;4.30;56.90;;;;;;5060320;28;20036;-81
2022/03/22 04:18:50;;;;;;;15.20;9.02;;;4.20;57.40;;;;;;5050305;28;20518;-82
2022/03/22 04:21:16;;;;;;;14.95;9.15;;;4.20;57.50;;;;;;5072312;28;20036;-81
2022/03/22 04:23:42;;;;;;;15.98;9.80;;;4.10;57.80;;;;;;5070690;28;20032;-82
2022/03/22 04:26:07;;;;;;;14.85;9.68;;;4.10;57.40;;;;;;5050591;28;20142;-82
2022/03/22 04:34:01;;;;;;;16.52;10.30;;;4.20;57.30;;;;;;5073491;28;20043;-82
2022/03/22 04:36:29;;;;;;;18.55;10.18;;;4.30;57.10;;;;;;5049036;28;20119;-82
2022/03/22 04:38:54;;;;;;;16.13;9.95;;;4.20;57.40;;;;;;5072561;28;20040;-82
2022/03/22 04:41:20;;;;;;;16.40;9.25;;;4.20;57.10;;;;;;5074774;28;20024;-82
2022/03/22 04:43:46;;;;;;;19.15;10.70;;;4.10;57.70;;;;;;5048038;28;20032;-82
2022/03/22 04:46:11;;;;;;;15.70;9.85;;;4.10;57.60;;;;;;5060654;28;20034;-82
2022/03/22 04:48:37;;;;;;;16.65;9.43;;;4.10;57.90;;;;;;5070878;28;20029;-82
2022/03/22 04:56:43;;;;;;;16.48;9.93;;;4.00;58.50;;;;;;5061958;28;20044;-82
2022/03/22 04:59:09;;;;;;;15.13;9.73;;;4.00;58.30;;;;;;5052605;28;20028;-83
2022/03/22 05:01:35;;;;;;;19.33;10.88;;;4.00;58.70;;;;;;5063374;28;20032;-82
2022/03/22 05:04:00;;;;;;;16.40;10.18;;;3.90;58.80;;;;;;5064745;28;20495;-83
2022/03/22 05:06:26;;;;;;;18.05;9.80;;;4.00;58.80;;;;;;5062298;28;20051;-82
2022/03/22 05:08:54;;;;;;;17.52;10.43;;;4.00;58.30;;;;;;5076208;28;20032;-82
2022/03/22 05:11:21;;;;;;;19.27;10.05;;;4.00;58.60;;;;;;5059581;28;20052;-82
2022/03/22 05:13:48;;;;;;;14.82;9.52;;;4.00;58.70;;;;;;5048599;28;20050;-81
2022/03/22 05:16:14;;;;;;;15.07;10.82;;;4.00;58.70;;;;;;5054425;28;20431;-82
2022/03/22 05:18:40;;;;;;;15.93;10.48;;;4.10;58.90;;;;;;5053121;28;20017;-82
2022/03/22 05:21:06;;;;;;;17.35;10.15;;;4.10;58.70;;;;;;5069362;28;20056;-83
2022/03/22 05:23:36;;;;;;;18.08;10.40;;;4.20;58.00;;;;;;5052558;28;20064;-82
2022/03/22 05:26:03;;;;;;;15.38;9.70;;;4.30;57.90;;;;;;5050858;28;20400;-81
2022/03/22 05:28:29;;;;;;;16.90;10.63;;;4.30;57.70;;;;;;5065159;28;20029;-82
2022/03/22 05:30:55;;;;;;;19.77;10.30;;;4.20;58.50;;;;;;5073443;28;20032;-82
2022/03/22 05:33:20;;;;;;;16.77;10.35;;;4.10;58.80;;;;;;5042006;28;20391;-83
2022/03/22 05:35:46;;;;;;;17.90;10.98;;;4.10;59.20;;;;;;5057997;28;20107;-83
2022/03/22 05:38:12;;;;;;;18.23;11.00;;;4.10;59.00;;;;;;5073777;28;20379;-83
2022/03/22 05:40:39;;;;;;;16.48;10.20;;;4.00;59.80;;;;;;5069632;28;20035;-83
2022/03/22 05:43:05;;;;;;;19.38;11.00;;;4.00;60.30;;;;;;5062367;28;20078;-83
2022/03/22 05:45:31;;;;;;;18.92;10.93;;;4.00;60.50;;;;;;5063863;28;20028;-82
2022/03/22 05:48:00;;;;;;;20.10;11.50;;;4.00;60.20;;;;;;5050133;28;20025;-85
2022/03/22 05:50:29;;;;;;;17.38;11.05;;;4.10;59.80;;;;;;5051372;28;20029;-83
2022/03/22 05:52:55;;;;;;;17.67;10.27;;;4.20;59.50;;;;;;5072011;28;20028;-83
2022/03/22 05:55:20;;;;;;;19.58;10.30;;;4.30;58.60;;;;;;5053895;28;20027;-82
2022/03/22 05:57:46;;;;;;;16.27;10.73;;;4.50;58.40;;;;;;5052913;28;20036;-85
2022/03/22 06:00:13;;;;;;;16.73;10.77;;;4.60;57.70;;;;;;5060176;28;20028;-83
2022/03/22 06:02:40;;;;;;;16.73;9.93;;;4.60;57.30;;;;;;5047391;28;20025;-83
2022/03/22 06:05:08;;;;;;;16.70;9.77;;;4.70;56.90;;;;;;5051780;28;20437;-83
2022/03/22 06:07:34;;;;;;;20.95;10.27;;;4.80;56.70;;;;;;5069356;28;22353;-82
2022/03/22 06:10:00;;;;;;;17.52;10.38;;;4.80;56.30;;;;;;5071936;28;20037;-82
2022/03/22 06:12:26;;;;;;;18.60;10.63;;;4.90;56.30;;;;;;5068470;28;20104;-82
2022/03/22 06:15:14;;;;;;;16.70;10.43;;;4.90;55.90;;;;;;5055849;28;20435;-83
2022/03/22 06:17:37;;;;;;;14.18;9.73;;;5.00;55.90;;;;;;5059399;28;20452;-82
2022/03/22 06:20:03;;;;;;;18.50;10.27;;;5.00;56.10;;;;;;5057105;28;20036;-82
2022/03/22 06:22:29;;;;;;;15.65;10.00;;;5.00;55.70;;;;;;5051970;28;20392;-83
2022/03/22 06:24:54;;;;;;;16.65;10.43;;;5.00;55.80;;;;;;5065854;28;20031;-83
2022/03/22 06:27:20;;;;;;;16.42;11.02;;;5.10;55.50;;;;;;5068228;28;20043;-83
2022/03/22 06:29:46;;;;;;;16.02;10.65;;;5.00;55.90;;;;;;5055532;28;20373;-83
2022/03/22 06:32:12;;;;;;;15.55;10.10;;;5.10;55.60;;;;;;5056107;28;20024;-83
2022/03/22 06:34:38;;;;;;;16.67;10.13;;;5.10;56.00;;;;;;5082993;28;20021;-83
2022/03/22 06:37:03;;;;;;;16.27;10.55;;;5.20;55.20;;;;;;5069973;28;20044;-83
2022/03/22 06:39:29;;;;;;;18.60;10.20;;;5.30;55.40;;;;;;5052956;28;20071;-83
2022/03/22 06:41:55;;;;;;;16.33;10.30;;;5.30;55.70;;;;;;5061255;28;20431;-82
2022/03/22 06:44:20;;;;;;;20.02;10.95;;;5.40;55.60;;;;;;5052867;28;20032;-83
2022/03/22 06:46:46;;;;;;;16.50;9.98;;;5.50;55.40;;;;;;5059400;28;20037;-83
2022/03/22 06:49:12;;;;;;;17.75;9.88;;;5.60;54.70;;;;;;5073125;28;20430;-83
2022/03/22 06:51:38;;;;;;;19.33;10.70;;;5.70;54.40;;;;;;5051062;28;20021;-82
2022/03/22 06:54:03;;;;;;;16.20;10.73;;;5.80;54.40;;;;;;5053949;28;20031;-82
2022/03/22 06:56:29;;;;;;;19.10;11.05;;;5.90;54.20;;;;;;5058443;28;20025;-83
2022/03/22 06:58:54;;;;;;;17.20;10.77;;;6.10;53.70;;;;;;5058243;28;20021;-83
2022/03/22 07:01:20;;;;;;;17.27;10.82;;;6.10;53.50;;;;;;5054734;28;20037;-83
2022/03/22 07:03:45;;;;;;;19.10;9.77;;;6.30;53.00;;;;;;5069026;28;20024;-83
2022/03/22 07:06:11;;;;;;;18.70;10.27;;;6.40;52.70;;;;;;5048657;28;20356;-83
2022/03/22 07:08:37;;;;;;;15.57;10.18;;;6.50;52.60;;;;;;5053847;28;20044;-83
2022/03/22 07:13:46;;;;;;;17.60;10.23;;;6.90;51.60;;;;;;5069771;28;20045;-84
2022/03/22 07:16:12;;;;;;;16.05;10.02;;;7.00;51.40;;;;;;5062866;28;20029;-84
2022/03/22 07:18:38;;;;;;;15.45;10.18;;;7.00;51.20;;;;;;5054500;28;20116;-83
2022/03/22 07:21:04;;;;;;;18.88;10.27;;;7.20;52.10;;;;;;5052376;28;20892;-83
2022/03/22 07:23:31;;;;;;;17.17;10.30;;;7.30;51.20;;;;;;5056568;28;20020;-83
2022/03/22 07:25:56;;;;;;;14.70;9.75;;;7.30;50.60;;;;;;5051496;28;20065;-83
2022/03/22 07:28:22;;;;;;;14.57;10.00;;;7.40;51.10;;;;;;5055480;28;20040;-83
2022/03/22 07:30:47;;;;;;;20.08;10.13;;;7.50;51.10;;;;;;5055752;28;20511;-83
2022/03/22 07:33:13;;;;;;;17.63;10.45;;;7.60;50.60;;;;;;5053898;28;20029;-83
2022/03/22 07:35:38;;;;;;;15.95;10.32;;;7.60;50.30;;;;;;5071002;28;20068;-83
2022/03/22 07:38:04;;;;;;;16.55;11.00;;;7.80;50.50;;;;;;5054174;28;20388;-83
2022/03/22 07:40:29;;;;;;;15.63;10.50;;;8.00;50.20;;;;;;5055175;28;20029;-83
2022/03/22 07:42:55;;;;;;;15.55;10.93;;;8.10;51.00;;;;;;5068537;28;20542;-82
2022/03/22 07:45:21;;;;;;;17.63;11.38;;;8.30;50.50;;;;;;5039198;28;20052;-83
2022/03/22 07:47:47;;;;;;;16.15;10.93;;;8.50;50.00;;;;;;5056360;28;20032;-83
2022/03/22 07:53:05;;;;;;;16.48;10.57;;;8.70;49.60;;;;;;5077474;28;20043;-83
2022/03/22 07:55:39;;;;;;;15.75;10.50;;;8.80;49.20;;;;;;5059529;28;20024;-83
2022/03/22 07:58:05;;;;;;;16.75;11.00;;;9.00;49.00;;;;;;5051700;28;20032;-83
2022/03/22 08:00:34;;;;;;;18.25;10.82;;;9.20;48.30;;;;;;5058008;28;20024;-83
2022/03/22 08:03:03;;;;;;;16.67;11.40;;;9.30;48.00;;;;;;5052661;28;20041;-83
2022/03/22 08:05:29;;;;;;;19.55;11.15;;;9.40;47.30;;;;;;5053344;28;20033;-83
2022/03/22 08:07:55;;;;;;;15.32;10.90;;;9.50;47.30;;;;;;5070751;28;20035;-83
2022/03/22 08:10:24;;;;;;;16.60;10.75;;;9.60;47.50;;;;;;5072636;28;20024;-83
2022/03/22 08:12:49;;;;;;;16.05;10.77;;;9.90;47.40;;;;;;5064061;28;20051;-83
2022/03/22 08:15:16;;;;;;;17.42;10.30;;;10.10;47.30;;;;;;5059930;28;20020;-83
2022/03/22 08:17:42;;;;;;;15.18;10.98;;;10.20;45.70;;;;;;5062791;28;20638;-84
2022/03/22 08:20:09;;;;;;;16.45;9.82;;;10.50;46.60;;;;;;5046646;28;20068;-83
2022/03/22 08:22:48;;;;;;;16.42;10.25;;;10.70;45.70;;;;;;5043287;28;20033;-84
2022/03/22 08:25:14;;;;;;;17.13;10.80;;;10.80;45.30;;;;;;5079107;28;20029;-83
2022/03/22 08:27:39;;;;;;;15.25;9.98;;;11.20;45.20;;;;;;5073572;28;20103;-83
2022/03/22 08:30:06;;;;;;;14.35;9.63;;;11.70;43.40;;;;;;5049290;28;20033;-83
2022/03/22 08:32:32;;;;;;;15.63;9.77;;;12.00;44.30;;;;;;5040509;28;20020;-83
2022/03/22 08:34:58;;;;;;;17.30;10.00;;;12.10;42.20;;;;;;5049814;28;20034;-83
2022/03/22 08:37:23;;;;;;;13.95;9.70;;;12.30;43.90;;;;;;5067802;28;20403;-83
2022/03/22 08:39:49;;;;;;;15.50;10.20;;;12.60;41.00;;;;;;5053166;28;20073;-83
2022/03/22 08:42:14;;;;;;;15.98;10.50;;;12.70;42.30;;;;;;5051304;28;20495;-83
2022/03/22 08:44:40;;;;;;;14.75;10.10;;;12.70;41.10;;;;;;5055085;28;20036;-83
2022/03/22 08:47:06;;;;;;;16.98;10.25;;;12.70;42.00;;;;;;5059197;28;20033;-83
2022/03/22 08:49:32;;;;;;;18.17;11.15;;;13.10;43.30;;;;;;5046532;28;20033;-83
2022/03/22 08:51:57;;;;;;;18.67;11.95;;;13.40;42.40;;;;;;5049286;28;20106;-84
2022/03/22 08:54:23;;;;;;;17.27;10.85;;;13.50;41.90;;;;;;5047406;28;20024;-83
2022/03/22 08:56:48;;;;;;;19.20;10.63;;;13.40;41.30;;;;;;5054003;28;20085;-83
2022/03/22 08:59:14;;;;;;;14.38;10.63;;;13.50;42.40;;;;;;5063716;28;20028;-83
2022/03/22 09:01:39;;;;;;;12.93;9.85;;;13.60;41.20;;;;;;5043621;28;20048;-83
2022/03/22 09:06:49;;;;;;;15.35;10.10;;;14.00;41.60;;;;;;5065523;28;20036;-83
2022/03/22 09:09:14;;;;;;;14.15;10.48;;;14.00;40.90;;;;;;5053426;28;20040;-84
2022/03/22 09:11:40;;;;;;;16.63;10.77;;;14.10;40.40;;;;;;5068358;28;20017;-83
2022/03/22 09:14:06;;;;;;;16.73;10.38;;;14.20;39.50;;;;;;5068693;28;20028;-83
2022/03/22 09:16:32;;;;;;;15.10;10.30;;;14.50;40.20;;;;;;5051850;28;20020;-84
2022/03/22 09:18:58;;;;;;;13.75;10.48;;;14.50;39.30;;;;;;5070987;28;20472;-84
2022/03/22 09:21:24;;;;;;;17.13;10.68;;;14.50;38.40;;;;;;5063533;28;20035;-84
2022/03/22 09:23:49;;;;;;;16.13;10.80;;;14.10;38.80;;;;;;5046734;28;20020;-83
2022/03/22 09:26:15;;;;;;;16.75;11.80;;;14.30;40.00;;;;;;5055378;28;20024;-83
2022/03/22 09:28:41;;;;;;;18.58;11.00;;;14.50;39.40;;;;;;5053091;28;20048;-83
2022/03/22 09:31:07;;;;;;;15.05;10.27;;;14.90;39.10;;;;;;5053331;28;20036;-84
2022/03/22 09:33:33;;;;;;;20.80;10.52;;;15.20;38.40;;;;;;5047198;28;20108;-83
2022/03/22 09:35:58;;;;;;;15.98;10.15;;;14.90;39.20;;;;;;5043668;28;20119;-83
2022/03/22 09:38:24;;;;;;;14.68;10.80;;;15.10;37.80;;;;;;5066729;28;20021;-83
2022/03/22 09:40:52;;;;;;;17.50;10.68;;;15.50;38.10;;;;;;5052495;28;20028;-83
2022/03/22 09:43:19;;;;;;;14.32;10.52;;;15.50;37.60;;;;;;5055917;28;20094;-84
2022/03/22 09:45:45;;;;;;;17.27;10.57;;;15.60;38.30;;;;;;5049090;28;20033;-84
2022/03/22 09:48:11;;;;;;;17.77;10.98;;;15.50;37.60;;;;;;5059125;28;20031;-84
2022/03/22 09:53:22;;;;;;;17.10;11.77;;;15.40;39.00;;;;;;5071843;28;20063;-83
2022/03/22 09:55:47;;;;;;;16.30;11.38;;;15.60;36.10;;;;;;5080830;28;20025;-84
2022/03/22 09:58:13;;;;;;;25.25;11.45;;;16.00;36.80;;;;;;5056897;28;20530;-83
2022/03/22 10:00:39;;;;;;;19.92;11.55;;;16.00;35.90;;;;;;5054118;28;20380;-83
2022/03/22 10:03:05;;;;;;;18.85;11.43;;;16.30;36.40;;;;;;5072465;28;20032;-84
2022/03/22 10:05:31;;;;;;;15.27;10.48;;;16.30;35.20;;;;;;5058958;28;20024;-84
2022/03/22 10:08:01;;;;;;;14.85;10.95;;;16.40;36.80;;;;;;5059301;28;20488;-83
2022/03/22 10:10:29;;;;;;;15.70;10.63;;;16.80;35.60;;;;;;5058636;28;20035;-83
2022/03/22 10:13:04;;;;;;;16.20;11.05;;;16.90;34.40;;;;;;5061183;28;20032;-84
2022/03/22 10:15:35;;;;;;;16.08;11.43;;;16.60;34.20;;;;;;5059431;28;20116;-83
2022/03/22 10:18:06;;;;;;;16.83;11.70;;;16.50;34.70;;;;;;5058943;28;20025;-84
2022/03/22 10:20:32;;;;;;;;;;;16.30;35.20;;;;;;5068413;28;20036;-83
2022/03/22 10:22:59;;;;;;;17.10;10.45;;;16.90;35.70;;;;;;5073825;28;20425;-84
2022/03/22 10:25:26;;;;;;;16.83;11.65;;;17.20;35.60;;;;;;5069392;28;20040;-84
2022/03/22 10:27:56;;;;;;;16.08;11.43;;;17.30;33.50;;;;;;5052507;28;20111;-84
2022/03/22 10:30:22;;;;;;;15.13;10.80;;;16.90;33.80;;;;;;5055263;28;20045;-83
2022/03/22 10:32:51;;;;;;;17.17;12.38;;;16.60;34.00;;;;;;5076878;28;20066;-83
2022/03/22 10:35:26;;;;;;;19.42;11.10;;;17.00;34.90;;;;;;5053863;28;20379;-84
2022/03/22 10:37:59;;;;;;;16.30;10.98;;;17.20;34.50;;;;;;5066860;28;20037;-84
2022/03/22 10:40:29;;;;;;;16.65;10.80;;;17.60;33.80;;;;;;5075247;28;20071;-84
2022/03/22 10:42:58;;;;;;;17.23;11.60;;;17.90;33.70;;;;;;5073152;28;20024;-83
2022/03/22 10:45:26;;;;;;;16.38;11.52;;;17.70;34.30;;;;;;5049544;28;20033;-83
2022/03/22 10:47:51;;;;;;;18.15;11.32;;;17.80;34.30;;;;;;5063681;28;20036;-84
2022/03/22 10:50:18;;;;;;;15.82;11.55;;;17.80;34.30;;;;;;5059880;28;20086;-83
2022/03/22 10:52:50;;;;;;;19.20;11.00;;;17.80;33.60;;;;;;5050287;28;20526;-84
2022/03/22 10:55:19;;;;;;;16.85;10.88;;;18.00;34.90;;;;;;5050708;28;20096;-84
2022/03/22 10:57:48;;;;;;;17.00;11.57;;;17.80;35.00;;;;;;5075637;28;20021;-84
2022/03/22 11:00:14;;;;;;;17.25;11.95;;;18.20;33.90;;;;;;5060083;28;20041;-84
2022/03/22 11:02:42;;;;;;;15.82;11.57;;;18.30;33.20;;;;;;5052463;28;20032;-84
2022/03/22 11:05:08;;;;;;;18.10;11.35;;;18.50;34.20;;;;;;5049516;28;20024;-84
2022/03/22 11:07:35;;;;;;;17.00;11.20;;;18.50;33.20;;;;;;5069153;28;20032;-84
2022/03/22 11:10:01;;;;;;;18.65;11.05;;;18.60;32.90;;;;;;5063405;28;20056;-84
2022/03/22 11:12:27;;;;;;;13.98;11.43;;;18.30;33.00;;;;;;5069160;28;20455;-85
2022/03/22 11:14:54;;;;;;;14.90;10.95;;;18.50;32.50;;;;;;5038138;28;20020;-85
2022/03/22 11:17:22;;;;;;;20.35;11.82;;;18.50;34.90;;;;;;5056643;28;20078;-85
2022/03/22 11:19:49;;;;;;;16.42;11.18;;;18.20;33.00;;;;;;5054545;28;20368;-84
2022/03/22 11:22:18;;;;;;;19.67;11.02;;;18.30;32.60;;;;;;5054681;28;20021;-84
2022/03/22 11:24:44;;;;;;;13.88;10.18;;;18.80;33.70;;;;;;5070049;28;20471;-84
2022/03/22 11:27:10;;;;;;;14.52;10.68;;;18.90;32.90;;;;;;5047178;28;20028;-84
2022/03/22 11:29:40;;;;;;;16.35;11.80;;;18.90;32.70;;;;;;5064678;28;20396;-84
2022/03/22 11:34:53;;;;;;;14.13;10.88;;;18.90;32.50;;;;;;5067799;28;20111;-84
2022/03/22 11:37:33;;;;;;;16.38;10.75;;;19.40;33.60;;;;;;5053154;28;20080;-84
2022/03/22 11:42:52;;;;;;;12.77;10.13;;;19.70;31.90;;;;;;5066979;28;20044;-84
2022/03/22 11:45:19;;;;;;;16.95;10.30;;;19.90;32.20;;;;;;5051065;28;20030;-84
2022/03/22 11:47:47;;;;;;;15.57;10.55;;;19.90;32.70;;;;;;5051505;28;20036;-84
2022/03/22 11:50:16;;;;;;;18.42;11.45;;;20.00;31.20;;;;;;5042670;28;20037;-84
2022/03/22 11:52:42;;;;;;;15.95;10.45;;;19.50;33.00;;;;;;5062727;28;20040;-84
2022/03/22 11:55:12;;;;;;;18.80;11.45;;;19.50;32.00;;;;;;5069596;28;20025;-84
2022/03/22 11:57:52;;;;;;;19.15;10.65;;;20.00;32.30;;;;;;5053038;28;20083;-84
2022/03/22 12:00:51;;;;;;;19.13;10.90;;;20.30;30.80;;;;;;5066033;28;20029;-84
2022/03/22 12:03:19;;;;;;;16.80;10.50;;;20.60;30.80;;;;;;5052836;28;20487;-84
2022/03/22 12:05:45;;;;;;;14.40;10.23;;;21.00;30.80;;;;;;5038735;28;20097;-84
2022/03/22 12:08:16;;;;;;;15.88;9.93;;;21.00;30.50;;;;;;5068316;28;20464;-84
2022/03/22 12:10:50;;;;;;;13.00;8.93;;;21.40;29.10;;;;;;5054359;28;20571;-84
2022/03/22 12:13:17;;;;;;;19.40;9.38;;;21.50;29.20;;;;;;5051607;28;20739;-85
2022/03/22 12:15:43;;;;;;;14.57;8.85;;;22.00;28.80;;;;;;5050299;28;20037;-84
2022/03/22 12:18:10;;;;;;;12.90;9.15;;;21.70;29.00;;;;;;5049294;28;20113;-84
2022/03/22 12:20:36;;;;;;;12.27;8.90;;;21.70;28.00;;;;;;5053209;28;20022;-84
2022/03/22 12:23:03;;;;;;;15.43;8.85;;;21.60;27.30;;;;;;5062560;28;20081;-84
2022/03/22 12:25:34;;;;;;;15.70;8.93;;;21.30;29.30;;;;;;5047428;28;20033;-84
2022/03/22 12:28:06;;;;;;;11.60;7.60;;;21.40;29.20;;;;;;5070132;28;20452;-84
2022/03/22 12:30:34;;;;;;;15.85;8.48;;;21.80;28.20;;;;;;5045100;28;20064;-84
2022/03/22 12:33:07;;;;;;;11.43;7.22;;;21.50;28.10;;;;;;5066047;28;20115;-85
2022/03/22 12:35:34;;;;;;;13.25;7.15;;;21.50;29.10;;;;;;5046266;28;20089;-84
2022/03/22 12:37:59;;;;;;;13.13;7.85;;;21.90;28.90;;;;;;5046943;28;20040;-85
2022/03/22 12:40:26;;;;;;;11.57;7.35;;;22.20;27.50;;;;;;5052127;28;20372;-84
2022/03/22 12:42:53;;;;;;;12.32;7.82;;;22.50;27.00;;;;;;5047673;28;20053;-84
2022/03/22 12:45:20;;;;;;;15.15;9.02;;;22.20;27.10;;;;;;5053952;28;20071;-85
2022/03/22 12:47:48;;;;;;;13.27;8.68;;;21.60;28.50;;;;;;5062588;28;20040;-84
2022/03/22 12:50:15;;;;;;;18.70;8.10;;;22.20;28.00;;;;;;5055909;28;20064;-84
2022/03/22 12:52:41;;;;;;;11.60;8.10;;;22.80;28.30;;;;;;5045402;28;20443;-85
2022/03/22 12:55:09;;;;;;;12.35;8.15;;;22.90;27.20;;;;;;5059214;28;20074;-84
2022/03/22 12:57:35;;;;;;;12.52;7.50;;;23.00;27.20;;;;;;5065483;28;20025;-84
2022/03/22 13:00:03;;;;;;;13.52;8.52;;;23.10;26.30;;;;;;5048012;28;20107;-85
2022/03/22 13:02:29;;;;;;;14.73;9.63;;;22.30;26.80;;;;;;5059126;28;20029;-85
2022/03/22 13:04:55;;;;;;;14.07;8.68;;;22.50;26.70;;;;;;5061987;28;20027;-84
2022/03/22 13:07:22;;;;;;;13.73;8.82;;;22.70;25.80;;;;;;5049475;28;20429;-84
2022/03/22 13:12:33;;;;;;;16.45;9.02;;;22.30;27.20;;;;;;5063075;28;20107;-85
2022/03/22 13:15:01;;;;;;;13.73;9.32;;;22.50;26.80;;;;;;5059795;28;20042;-84
2022/03/22 13:17:32;;;;;;;14.80;8.73;;;22.60;27.00;;;;;;5058499;28;20361;-84